DW1029 Weather Reports


Display with metric or nautical units.
time (UTC)temp
F
wind
direction
speed
MPH
gust
MPH
rain 1hr
in
rain 24hr
in
rain mn
in
humidity
%
barometer
mb
20190820051547 78 68 0.0 0.0 0.00 0.00 0.00 4 1012.0
20190820050021 78 68 0.0 0.0 0.00 0.00 0.00 7 1012.2
20190820044516 78 68 0.0 2.0 0.00 0.00 0.00 7 1012.3
20190820043040 78 68 0.0 2.0 0.00 0.00 0.00 9 1012.5
20190820041505 78 68 1.0 3.0 0.00 0.00 0.00 12 1012.5
20190820040217 78 67 0.0 0.0 0.00 0.00 0.00 14 1012.6
20190820034652 78 67 1.0 3.0 0.00 0.00 0.00 17 1012.5
20190820033155 79 86 0.0 4.0 0.00 0.00 0.00 19 1012.3
20190820031609 79 88 1.0 5.0 0.00 0.00 0.00 23 1012.3
20190820030125 79 107 0.0 2.0 0.00 0.00 0.00 26 1012.1
20190820024624 79 107 2.0 4.0 0.00 0.00 0.00 28 1011.9
20190820023130 79 107 1.0 3.0 0.00 0.00 0.00 30 1011.7
20190820021536 80 108 1.0 5.0 0.00 0.00 0.00 33 1011.3
20190820020113 80 113 3.0 5.0 0.00 0.00 0.00 35 1011.2
20190820014539 80 109 2.0 5.0 0.00 0.00 0.00 37 1011.0
20190820013023 81 99 2.0 5.0 0.00 0.00 0.00 41 1010.8
20190820011545 81 88 2.0 8.0 0.00 0.00 0.00 43 1010.7
20190820010041 81 108 3.0 11.0 0.00 0.00 0.00 46 1010.6
20190820004502 82 109 6.0 14.0 0.00 0.00 0.00 49 1010.4
20190820003116 82 137 7.0 19.0 0.00 0.00 0.00 51 1010.2
20190820001827 82 96 9.0 17.0 0.00 0.00 0.00 52 1009.7
20190820000130 83 128 10.0 25.0 0.00 0.00 0.00 54 1009.5
20190819234638 84 91 9.0 18.0 0.00 0.00 0.00 55 1009.2
20190819233118 85 133 11.0 18.0 0.00 0.00 0.00 55 1008.9
20190819231551 85 92 13.0 23.0 0.00 0.00 0.00 56 1008.7
20190819230142 86 107 10.0 22.0 0.00 0.00 0.00 54 1008.5
20190819224646 87 135 8.0 23.0 0.00 0.00 0.00 52 1008.2
20190819223034 88 107 12.0 21.0 0.00 0.00 0.00 52 1008.1
20190819221520 88 92 11.0 25.0 0.00 0.00 0.00 50 1008.3
20190819220016 89 98 8.0 15.0 0.00 0.00 0.00 51 1008.3
20190819214512 89 161 8.0 19.0 0.00 0.00 0.00 49 1008.3
20190819213030 89 125 12.0 23.0 0.00 0.00 0.00 50 1008.6
20190819211646 90 92 7.0 19.0 0.00 0.00 0.00 50 1008.5
20190819210139 89 148 10.0 21.0 0.00 0.00 0.00 49 1008.8
20190819204632 90 98 8.0 22.0 0.00 0.00 0.00 49 1008.9
20190819203125 90 83 10.0 22.0 0.00 0.00 0.00 49 1009.0
20190819201652 90 158 8.0 19.0 0.00 0.00 0.00 49 1009.2
20190819200100 90 133 12.0 22.0 0.00 0.00 0.00 48 1009.3
20190819194535 89 96 12.0 23.0 0.00 0.00 0.00 50 1009.4
20190819193035 90 108 11.0 23.0 0.00 0.00 0.00 49 1009.7
20190819191618 90 150 10.0 21.0 0.00 0.00 0.00 48 1009.8
20190819190045 90 133 13.0 23.0 0.00 0.00 0.00 48 1009.9
20190819184532 88 99 13.0 25.0 0.00 0.00 0.00 49 1010.3
20190819183047 89 78 13.0 22.0 0.00 0.00 0.00 50 1010.3
20190819181517 89 107 11.0 23.0 0.00 0.00 0.00 50 1010.6
20190819180002 89 85 15.0 25.0 0.00 0.00 0.00 49 1010.7
20190819174831 89 87 10.0 22.0 0.00 0.00 0.00 49 1010.9
20190819173124 90 130 8.0 23.0 0.00 0.00 0.00 48 1011.1
20190819171631 88 103 16.0 23.0 0.00 0.00 0.00 49 1011.0
20190819170256 89 103 8.0 19.0 0.00 0.00 0.00 48 1011.1
20190819164733 88 74 12.0 23.0 0.00 0.00 0.00 47 1010.8
20190819163105 88 59 12.0 23.0 0.00 0.00 0.00 47 1010.9
20190819161552 88 99 10.0 25.0 0.00 0.00 0.00 45 1011.0
20190819160039 88 122 12.0 21.0 0.00 0.00 0.00 42 1011.0
20190819154540 88 76 6.0 18.0 0.00 0.00 0.00 39 1011.0
20190819153024 87 86 7.0 19.0 0.00 0.00 0.00 35 1010.8
20190819151520 86 134 9.0 22.0 0.00 0.00 0.00 30 1010.9
20190819150012 84 98 9.0 16.0 0.00 0.00 0.00 17 1010.9
20190819144520 82 96 7.0 17.0 0.00 0.00 0.00 11 1010.8
20190819143008 83 133 7.0 16.0 0.00 0.00 0.00 13 1010.7
20190819141623 84 117 10.0 20.0 0.00 0.00 0.00 18 1010.8
20190819140200 83 107 5.0 11.0 0.00 0.00 0.00 11 1010.8
20190819134741 82 103 7.0 12.0 0.00 0.00 0.00 6 1010.6
20190819133125 82 84 7.0 11.0 0.00 0.00 0.00 5 1010.6
20190819131629 81 106 2.0 7.0 0.00 0.00 0.00 100 1010.7
20190819130133 80 86 0.0 5.0 0.00 0.00 0.00 100 1010.6
20190819124606 80 88 0.0 0.0 0.00 0.00 0.00 100 1010.4
20190819123056 78 88 0.0 3.0 0.00 0.00 0.00 100 1010.2
20190819121616 77 88 0.0 0.0 0.00 0.00 0.00 100 1009.8
20190819120051 77 88 1.0 3.0 0.00 0.00 0.00 100 1009.6
20190819114526 77 110 2.0 8.0 0.00 0.00 0.00 100 1009.4
20190819113015 77 98 4.0 9.0 0.00 0.00 0.00 100 1009.4
20190819111523 76 88 5.0 9.0 0.00 0.00 0.00 100 1009.4
20190819110148 76 115 5.0 10.0 0.00 0.00 0.00 100 1009.4
20190819104819 76 105 5.0 9.0 0.00 0.00 0.00 100 1009.6
20190819103141 76 110 5.0 9.0 0.00 0.00 0.00 100 1009.6
20190819101635 76 113 5.0 9.0 0.00 0.00 0.00 100 1009.7
20190819100129 76 124 5.0 9.0 0.00 0.00 0.00 100 1009.7
20190819094556 76 88 7.0 10.0 0.00 0.00 0.00 100 1009.7
20190819093050 76 109 5.0 7.0 0.00 0.00 0.00 100 1009.8
20190819091547 76 101 3.0 7.0 0.00 0.00 0.00 100 1009.8
20190819090044 76 80 1.0 3.0 0.00 0.00 0.00 100 1009.9
20190819084550 76 80 0.0 1.0 0.00 0.00 0.00 100 1010.0
20190819083039 76 80 0.0 0.0 0.00 0.00 0.00 100 1010.1
20190819081513 77 80 0.0 1.0 0.00 0.00 0.00 100 1010.0
20190819080042 77 80 0.0 0.0 0.00 0.00 0.00 100 1009.9
20190819074505 77 71 1.0 5.0 0.00 0.00 0.00 100 1010.1
20190819073154 77 84 2.0 5.0 0.00 0.00 0.00 100 1010.1
20190819071652 77 103 1.0 3.0 0.00 0.00 0.00 100 1010.2
20190819070228 77 103 1.0 5.0 0.00 0.00 0.00 100 1010.3
20190819064631 77 99 1.0 3.0 0.00 0.00 0.00 100 1010.6
20190819063101 77 99 2.0 5.0 0.00 0.00 0.00 100 1010.9
20190819061725 78 98 3.0 6.0 0.00 0.00 0.00 100 1010.8
20190819060121 78 115 3.0 6.0 0.00 0.00 0.00 100 1011.0
20190819054628 78 90 4.0 8.0 0.00 0.00 0.00 100 1011.0
20190819053036 78 104 2.0 6.0 0.00 0.00 0.00 100 1011.0